sensor_id;sensor_type;location;lat;lon;timestamp;P1;durP1;ratioP1;P2;durP2;ratioP2
70946;SDS011;58605;48.700;8.760;2023-12-20T00:01:16;1.50;;;1.37;;
70946;SDS011;58605;48.700;8.760;2023-12-20T00:03:44;1.60;;;1.50;;
70946;SDS011;58605;48.700;8.760;2023-12-20T00:06:10;1.50;;;1.40;;
70946;SDS011;58605;48.700;8.760;2023-12-20T00:08:37;2.17;;;1.50;;
70946;SDS011;58605;48.700;8.760;2023-12-20T00:11:03;1.47;;;1.37;;
70946;SDS011;58605;48.700;8.760;2023-12-20T00:13:29;1.70;;;1.40;;
70946;SDS011;58605;48.700;8.760;2023-12-20T00:15:55;1.47;;;1.20;;
70946;SDS011;58605;48.700;8.760;2023-12-20T00:18:22;1.30;;;1.20;;
70946;SDS011;58605;48.700;8.760;2023-12-20T00:20:49;1.00;;;1.00;;
70946;SDS011;58605;48.700;8.760;2023-12-20T00:23:16;1.40;;;1.30;;
70946;SDS011;58605;48.700;8.760;2023-12-20T00:25:42;1.20;;;1.10;;
70946;SDS011;58605;48.700;8.760;2023-12-20T00:28:08;1.57;;;1.40;;
70946;SDS011;58605;48.700;8.760;2023-12-20T00:30:34;1.33;;;1.23;;
70946;SDS011;58605;48.700;8.760;2023-12-20T00:33:01;1.50;;;1.40;;
70946;SDS011;58605;48.700;8.760;2023-12-20T00:35:27;1.73;;;1.37;;
70946;SDS011;58605;48.700;8.760;2023-12-20T00:37:55;1.67;;;1.57;;
70946;SDS011;58605;48.700;8.760;2023-12-20T00:40:21;1.90;;;1.47;;
70946;SDS011;58605;48.700;8.760;2023-12-20T00:42:47;1.60;;;1.50;;
70946;SDS011;58605;48.700;8.760;2023-12-20T00:45:13;1.40;;;1.30;;
70946;SDS011;58605;48.700;8.760;2023-12-20T00:47:40;1.30;;;1.20;;
70946;SDS011;58605;48.700;8.760;2023-12-20T00:50:06;1.40;;;1.20;;
70946;SDS011;58605;48.700;8.760;2023-12-20T00:52:33;4.40;;;1.70;;
70946;SDS011;58605;48.700;8.760;2023-12-20T00:55:00;1.50;;;1.40;;
70946;SDS011;58605;48.700;8.760;2023-12-20T00:57:26;1.93;;;1.67;;
70946;SDS011;58605;48.700;8.760;2023-12-20T00:59:53;1.53;;;1.43;;
70946;SDS011;58605;48.700;8.760;2023-12-20T01:02:19;1.60;;;1.50;;
70946;SDS011;58605;48.700;8.760;2023-12-20T01:04:45;1.60;;;1.40;;
70946;SDS011;58605;48.700;8.760;2023-12-20T01:07:11;1.47;;;1.37;;
70946;SDS011;58605;48.700;8.760;2023-12-20T01:09:38;1.30;;;1.20;;
70946;SDS011;58605;48.700;8.760;2023-12-20T01:12:05;1.47;;;1.37;;
70946;SDS011;58605;48.700;8.760;2023-12-20T01:14:32;1.80;;;1.40;;
70946;SDS011;58605;48.700;8.760;2023-12-20T01:16:58;1.37;;;1.27;;
70946;SDS011;58605;48.700;8.760;2023-12-20T01:19:24;1.50;;;1.40;;
70946;SDS011;58605;48.700;8.760;2023-12-20T01:21:52;1.20;;;1.00;;
70946;SDS011;58605;48.700;8.760;2023-12-20T01:24:18;1.10;;;0.97;;
70946;SDS011;58605;48.700;8.760;2023-12-20T01:26:44;0.97;;;0.83;;
70946;SDS011;58605;48.700;8.760;2023-12-20T01:29:12;0.73;;;0.67;;
70946;SDS011;58605;48.700;8.760;2023-12-20T01:31:39;0.70;;;0.70;;
70946;SDS011;58605;48.700;8.760;2023-12-20T01:34:05;0.87;;;0.87;;
70946;SDS011;58605;48.700;8.760;2023-12-20T01:36:32;0.53;;;0.53;;
70946;SDS011;58605;48.700;8.760;2023-12-20T01:38:58;0.83;;;0.70;;
70946;SDS011;58605;48.700;8.760;2023-12-20T01:41:24;0.80;;;0.80;;
70946;SDS011;58605;48.700;8.760;2023-12-20T01:43:50;1.13;;;0.90;;
70946;SDS011;58605;48.700;8.760;2023-12-20T01:46:20;0.63;;;0.63;;
70946;SDS011;58605;48.700;8.760;2023-12-20T01:48:46;0.60;;;0.60;;
70946;SDS011;58605;48.700;8.760;2023-12-20T01:51:13;0.60;;;0.60;;
70946;SDS011;58605;48.700;8.760;2023-12-20T01:53:39;0.50;;;0.50;;
70946;SDS011;58605;48.700;8.760;2023-12-20T01:56:07;0.60;;;0.60;;
70946;SDS011;58605;48.700;8.760;2023-12-20T01:58:34;0.60;;;0.60;;
70946;SDS011;58605;48.700;8.760;2023-12-20T02:04:27;0.40;;;0.40;;
70946;SDS011;58605;48.700;8.760;2023-12-20T02:06:54;0.33;;;0.33;;
70946;SDS011;58605;48.700;8.760;2023-12-20T02:09:22;0.40;;;0.40;;
70946;SDS011;58605;48.700;8.760;2023-12-20T02:11:49;0.33;;;0.33;;
70946;SDS011;58605;48.700;8.760;2023-12-20T02:14:15;0.20;;;0.20;;
70946;SDS011;58605;48.700;8.760;2023-12-20T02:16:42;0.67;;;0.40;;
70946;SDS011;58605;48.700;8.760;2023-12-20T02:19:09;0.40;;;0.40;;
70946;SDS011;58605;48.700;8.760;2023-12-20T02:21:40;0.47;;;0.47;;
70946;SDS011;58605;48.700;8.760;2023-12-20T02:24:06;0.40;;;0.40;;
70946;SDS011;58605;48.700;8.760;2023-12-20T02:26:33;0.30;;;0.30;;
70946;SDS011;58605;48.700;8.760;2023-12-20T02:28:59;0.30;;;0.30;;
70946;SDS011;58605;48.700;8.760;2023-12-20T02:31:26;0.37;;;0.37;;
70946;SDS011;58605;48.700;8.760;2023-12-20T02:33:53;0.30;;;0.30;;
70946;SDS011;58605;48.700;8.760;2023-12-20T02:36:19;0.40;;;0.40;;
70946;SDS011;58605;48.700;8.760;2023-12-20T02:38:46;0.30;;;0.30;;
70946;SDS011;58605;48.700;8.760;2023-12-20T02:41:13;0.20;;;0.20;;
70946;SDS011;58605;48.700;8.760;2023-12-20T02:43:42;0.30;;;0.30;;
70946;SDS011;58605;48.700;8.760;2023-12-20T02:46:08;1.30;;;0.40;;
70946;SDS011;58605;48.700;8.760;2023-12-20T02:48:34;0.20;;;0.20;;
70946;SDS011;58605;48.700;8.760;2023-12-20T02:51:00;0.40;;;0.40;;
70946;SDS011;58605;48.700;8.760;2023-12-20T02:53:27;0.40;;;0.40;;
70946;SDS011;58605;48.700;8.760;2023-12-20T02:55:55;0.20;;;0.20;;
70946;SDS011;58605;48.700;8.760;2023-12-20T02:58:21;0.20;;;0.20;;
70946;SDS011;58605;48.700;8.760;2023-12-20T03:00:47;0.20;;;0.20;;
70946;SDS011;58605;48.700;8.760;2023-12-20T03:03:14;0.37;;;0.37;;
70946;SDS011;58605;48.700;8.760;2023-12-20T03:05:40;0.33;;;0.33;;
70946;SDS011;58605;48.700;8.760;2023-12-20T03:08:06;0.40;;;0.30;;
70946;SDS011;58605;48.700;8.760;2023-12-20T03:10:32;0.30;;;0.30;;
70946;SDS011;58605;48.700;8.760;2023-12-20T03:13:00;0.20;;;0.20;;
70946;SDS011;58605;48.700;8.760;2023-12-20T03:15:26;0.30;;;0.30;;
70946;SDS011;58605;48.700;8.760;2023-12-20T03:17:53;0.20;;;0.20;;
70946;SDS011;58605;48.700;8.760;2023-12-20T03:20:19;0.20;;;0.20;;
70946;SDS011;58605;48.700;8.760;2023-12-20T03:22:45;0.20;;;0.20;;
70946;SDS011;58605;48.700;8.760;2023-12-20T03:25:11;0.13;;;0.13;;
70946;SDS011;58605;48.700;8.760;2023-12-20T03:27:38;0.20;;;0.20;;
70946;SDS011;58605;48.700;8.760;2023-12-20T03:30:07;1.60;;;0.40;;
70946;SDS011;58605;48.700;8.760;2023-12-20T03:32:34;0.43;;;0.30;;
70946;SDS011;58605;48.700;8.760;2023-12-20T03:35:00;0.20;;;0.20;;
70946;SDS011;58605;48.700;8.760;2023-12-20T03:37:27;0.20;;;0.20;;
70946;SDS011;58605;48.700;8.760;2023-12-20T03:39:53;0.23;;;0.23;;
70946;SDS011;58605;48.700;8.760;2023-12-20T03:42:19;0.23;;;0.23;;
70946;SDS011;58605;48.700;8.760;2023-12-20T03:44:45;0.20;;;0.20;;
70946;SDS011;58605;48.700;8.760;2023-12-20T03:47:13;0.30;;;0.30;;
70946;SDS011;58605;48.700;8.760;2023-12-20T03:49:39;0.30;;;0.30;;
70946;SDS011;58605;48.700;8.760;2023-12-20T03:52:05;0.27;;;0.27;;
70946;SDS011;58605;48.700;8.760;2023-12-20T03:54:31;0.30;;;0.30;;
70946;SDS011;58605;48.700;8.760;2023-12-20T03:56:58;0.23;;;0.23;;
70946;SDS011;58605;48.700;8.760;2023-12-20T03:59:24;0.10;;;0.10;;
70946;SDS011;58605;48.700;8.760;2023-12-20T04:01:50;0.10;;;0.10;;
70946;SDS011;58605;48.700;8.760;2023-12-20T04:04:18;0.30;;;0.30;;
70946;SDS011;58605;48.700;8.760;2023-12-20T04:06:44;0.20;;;0.20;;
70946;SDS011;58605;48.700;8.760;2023-12-20T04:09:11;0.23;;;0.23;;
70946;SDS011;58605;48.700;8.760;2023-12-20T04:11:37;0.17;;;0.13;;
70946;SDS011;58605;48.700;8.760;2023-12-20T04:14:03;0.20;;;0.20;;
70946;SDS011;58605;48.700;8.760;2023-12-20T04:16:30;0.20;;;0.20;;
70946;SDS011;58605;48.700;8.760;2023-12-20T04:18:56;0.20;;;0.20;;
70946;SDS011;58605;48.700;8.760;2023-12-20T04:21:24;0.10;;;0.10;;
70946;SDS011;58605;48.700;8.760;2023-12-20T04:23:50;0.30;;;0.30;;
70946;SDS011;58605;48.700;8.760;2023-12-20T04:26:16;0.30;;;0.30;;
70946;SDS011;58605;48.700;8.760;2023-12-20T04:28:42;0.13;;;0.13;;
70946;SDS011;58605;48.700;8.760;2023-12-20T04:31:08;0.20;;;0.20;;
70946;SDS011;58605;48.700;8.760;2023-12-20T04:33:34;0.20;;;0.20;;
70946;SDS011;58605;48.700;8.760;2023-12-20T04:36:01;0.30;;;0.20;;
70946;SDS011;58605;48.700;8.760;2023-12-20T04:38:29;0.30;;;0.30;;
70946;SDS011;58605;48.700;8.760;2023-12-20T04:40:55;0.20;;;0.20;;
70946;SDS011;58605;48.700;8.760;2023-12-20T04:43:21;0.93;;;0.20;;
70946;SDS011;58605;48.700;8.760;2023-12-20T04:45:47;0.20;;;0.20;;
70946;SDS011;58605;48.700;8.760;2023-12-20T04:48:14;0.20;;;0.20;;
70946;SDS011;58605;48.700;8.760;2023-12-20T04:50:40;0.67;;;0.30;;
70946;SDS011;58605;48.700;8.760;2023-12-20T04:53:06;0.20;;;0.20;;
70946;SDS011;58605;48.700;8.760;2023-12-20T04:55:34;0.20;;;0.20;;
70946;SDS011;58605;48.700;8.760;2023-12-20T04:58:00;0.27;;;0.27;;
70946;SDS011;58605;48.700;8.760;2023-12-20T05:00:26;0.20;;;0.20;;
70946;SDS011;58605;48.700;8.760;2023-12-20T05:02:52;0.30;;;0.30;;
70946;SDS011;58605;48.700;8.760;2023-12-20T05:05:19;0.20;;;0.20;;
70946;SDS011;58605;48.700;8.760;2023-12-20T05:07:45;0.20;;;0.20;;
70946;SDS011;58605;48.700;8.760;2023-12-20T05:10:12;0.40;;;0.40;;
70946;SDS011;58605;48.700;8.760;2023-12-20T05:12:39;0.10;;;0.10;;
70946;SDS011;58605;48.700;8.760;2023-12-20T05:15:06;0.33;;;0.33;;
70946;SDS011;58605;48.700;8.760;2023-12-20T05:17:32;0.30;;;0.30;;
70946;SDS011;58605;48.700;8.760;2023-12-20T05:19:59;0.20;;;0.20;;
70946;SDS011;58605;48.700;8.760;2023-12-20T05:22:26;0.30;;;0.30;;
70946;SDS011;58605;48.700;8.760;2023-12-20T05:24:52;1.33;;;0.50;;
70946;SDS011;58605;48.700;8.760;2023-12-20T05:27:19;0.40;;;0.37;;
70946;SDS011;58605;48.700;8.760;2023-12-20T05:29:46;0.20;;;0.20;;
70946;SDS011;58605;48.700;8.760;2023-12-20T05:32:12;0.23;;;0.23;;
70946;SDS011;58605;48.700;8.760;2023-12-20T05:34:38;0.30;;;0.30;;
70946;SDS011;58605;48.700;8.760;2023-12-20T05:37:04;0.23;;;0.23;;
70946;SDS011;58605;48.700;8.760;2023-12-20T05:39:31;0.40;;;0.40;;
70946;SDS011;58605;48.700;8.760;2023-12-20T05:41:57;0.20;;;0.20;;
70946;SDS011;58605;48.700;8.760;2023-12-20T05:44:23;0.30;;;0.30;;
70946;SDS011;58605;48.700;8.760;2023-12-20T05:46:50;0.40;;;0.40;;
70946;SDS011;58605;48.700;8.760;2023-12-20T05:49:17;0.40;;;0.40;;
70946;SDS011;58605;48.700;8.760;2023-12-20T05:51:43;0.93;;;0.60;;
70946;SDS011;58605;48.700;8.760;2023-12-20T05:54:09;0.20;;;0.20;;
70946;SDS011;58605;48.700;8.760;2023-12-20T05:56:35;0.50;;;0.50;;
70946;SDS011;58605;48.700;8.760;2023-12-20T05:59:02;1.00;;;0.80;;
70946;SDS011;58605;48.700;8.760;2023-12-20T06:01:28;0.40;;;0.40;;
70946;SDS011;58605;48.700;8.760;2023-12-20T06:03:56;0.43;;;0.43;;
70946;SDS011;58605;48.700;8.760;2023-12-20T06:06:22;0.60;;;0.30;;
70946;SDS011;58605;48.700;8.760;2023-12-20T06:08:49;1.10;;;0.40;;
70946;SDS011;58605;48.700;8.760;2023-12-20T06:11:15;0.30;;;0.30;;
70946;SDS011;58605;48.700;8.760;2023-12-20T06:13:41;0.50;;;0.50;;
70946;SDS011;58605;48.700;8.760;2023-12-20T06:16:07;0.50;;;0.50;;
70946;SDS011;58605;48.700;8.760;2023-12-20T06:18:33;0.43;;;0.43;;
70946;SDS011;58605;48.700;8.760;2023-12-20T06:21:01;0.50;;;0.50;;
70946;SDS011;58605;48.700;8.760;2023-12-20T06:23:27;0.40;;;0.40;;
70946;SDS011;58605;48.700;8.760;2023-12-20T06:25:54;0.63;;;0.63;;
70946;SDS011;58605;48.700;8.760;2023-12-20T06:28:20;0.50;;;0.50;;
70946;SDS011;58605;48.700;8.760;2023-12-20T06:30:46;1.07;;;0.80;;
70946;SDS011;58605;48.700;8.760;2023-12-20T06:33:14;0.50;;;0.50;;
70946;SDS011;58605;48.700;8.760;2023-12-20T06:35:40;1.30;;;0.53;;
70946;SDS011;58605;48.700;8.760;2023-12-20T06:38:08;0.50;;;0.50;;
70946;SDS011;58605;48.700;8.760;2023-12-20T06:40:34;0.67;;;0.67;;
70946;SDS011;58605;48.700;8.760;2023-12-20T06:43:00;0.60;;;0.60;;
70946;SDS011;58605;48.700;8.760;2023-12-20T06:45:26;0.70;;;0.70;;
70946;SDS011;58605;48.700;8.760;2023-12-20T06:47:53;0.70;;;0.63;;
70946;SDS011;58605;48.700;8.760;2023-12-20T06:50:20;0.43;;;0.43;;
70946;SDS011;58605;48.700;8.760;2023-12-20T06:52:46;0.50;;;0.50;;
70946;SDS011;58605;48.700;8.760;2023-12-20T06:55:14;0.47;;;0.47;;
70946;SDS011;58605;48.700;8.760;2023-12-20T06:57:40;1.43;;;0.70;;
70946;SDS011;58605;48.700;8.760;2023-12-20T07:00:06;0.67;;;0.60;;
70946;SDS011;58605;48.700;8.760;2023-12-20T07:02:33;0.70;;;0.70;;
70946;SDS011;58605;48.700;8.760;2023-12-20T07:05:00;1.80;;;0.67;;
70946;SDS011;58605;48.700;8.760;2023-12-20T07:07:26;0.43;;;0.43;;
70946;SDS011;58605;48.700;8.760;2023-12-20T07:09:52;1.00;;;1.00;;
70946;SDS011;58605;48.700;8.760;2023-12-20T07:12:20;5.30;;;1.90;;
70946;SDS011;58605;48.700;8.760;2023-12-20T07:14:46;1.00;;;0.90;;
70946;SDS011;58605;48.700;8.760;2023-12-20T07:17:12;2.13;;;1.50;;
70946;SDS011;58605;48.700;8.760;2023-12-20T07:19:40;1.73;;;1.27;;
70946;SDS011;58605;48.700;8.760;2023-12-20T07:22:08;0.80;;;0.80;;
70946;SDS011;58605;48.700;8.760;2023-12-20T07:24:34;1.63;;;1.50;;
70946;SDS011;58605;48.700;8.760;2023-12-20T07:27:00;1.30;;;1.20;;
70946;SDS011;58605;48.700;8.760;2023-12-20T07:29:28;1.27;;;1.07;;
70946;SDS011;58605;48.700;8.760;2023-12-20T07:31:54;1.10;;;1.00;;
70946;SDS011;58605;48.700;8.760;2023-12-20T07:34:21;1.80;;;1.40;;
70946;SDS011;58605;48.700;8.760;2023-12-20T07:36:47;3.20;;;1.40;;
70946;SDS011;58605;48.700;8.760;2023-12-20T07:39:15;1.50;;;1.20;;
70946;SDS011;58605;48.700;8.760;2023-12-20T07:41:41;1.60;;;1.20;;
70946;SDS011;58605;48.700;8.760;2023-12-20T07:44:08;1.33;;;1.17;;
70946;SDS011;58605;48.700;8.760;2023-12-20T07:46:36;0.93;;;0.93;;
70946;SDS011;58605;48.700;8.760;2023-12-20T07:49:03;2.30;;;1.33;;
70946;SDS011;58605;48.700;8.760;2023-12-20T07:51:30;2.17;;;1.43;;
70946;SDS011;58605;48.700;8.760;2023-12-20T07:53:56;1.33;;;1.20;;
70946;SDS011;58605;48.700;8.760;2023-12-20T07:56:22;2.87;;;1.23;;
70946;SDS011;58605;48.700;8.760;2023-12-20T07:58:48;3.53;;;1.77;;
70946;SDS011;58605;48.700;8.760;2023-12-20T08:01:15;1.40;;;1.20;;
70946;SDS011;58605;48.700;8.760;2023-12-20T08:03:45;1.77;;;1.20;;
70946;SDS011;58605;48.700;8.760;2023-12-20T08:06:11;1.30;;;1.20;;
70946;SDS011;58605;48.700;8.760;2023-12-20T08:08:38;1.27;;;1.17;;
70946;SDS011;58605;48.700;8.760;2023-12-20T08:11:04;1.63;;;1.43;;
70946;SDS011;58605;48.700;8.760;2023-12-20T08:13:30;1.67;;;1.50;;
70946;SDS011;58605;48.700;8.760;2023-12-20T08:15:56;2.30;;;1.80;;
70946;SDS011;58605;48.700;8.760;2023-12-20T08:18:22;3.23;;;1.70;;
70946;SDS011;58605;48.700;8.760;2023-12-20T08:20:50;4.27;;;1.93;;
70946;SDS011;58605;48.700;8.760;2023-12-20T08:23:19;2.00;;;1.50;;
70946;SDS011;58605;48.700;8.760;2023-12-20T08:25:46;1.97;;;1.67;;
70946;SDS011;58605;48.700;8.760;2023-12-20T08:28:13;2.27;;;1.60;;
70946;SDS011;58605;48.700;8.760;2023-12-20T08:30:39;2.43;;;1.73;;
70946;SDS011;58605;48.700;8.760;2023-12-20T08:33:06;3.73;;;2.00;;
70946;SDS011;58605;48.700;8.760;2023-12-20T08:35:36;2.10;;;1.83;;
70946;SDS011;58605;48.700;8.760;2023-12-20T08:38:04;4.47;;;2.07;;
70946;SDS011;58605;48.700;8.760;2023-12-20T08:40:30;4.17;;;2.33;;
70946;SDS011;58605;48.700;8.760;2023-12-20T08:42:56;6.03;;;1.80;;
70946;SDS011;58605;48.700;8.760;2023-12-20T08:45:22;6.07;;;2.17;;
70946;SDS011;58605;48.700;8.760;2023-12-20T08:47:48;8.37;;;2.10;;
70946;SDS011;58605;48.700;8.760;2023-12-20T08:50:15;4.17;;;2.27;;
70946;SDS011;58605;48.700;8.760;2023-12-20T08:52:41;3.87;;;2.07;;
70946;SDS011;58605;48.700;8.760;2023-12-20T08:55:09;2.17;;;1.90;;
70946;SDS011;58605;48.700;8.760;2023-12-20T08:57:35;4.90;;;2.43;;
70946;SDS011;58605;48.700;8.760;2023-12-20T09:00:02;4.53;;;2.13;;
70946;SDS011;58605;48.700;8.760;2023-12-20T09:02:28;3.10;;;1.87;;
70946;SDS011;58605;48.700;8.760;2023-12-20T09:04:54;1.90;;;1.70;;
70946;SDS011;58605;48.700;8.760;2023-12-20T09:07:21;5.47;;;2.00;;
70946;SDS011;58605;48.700;8.760;2023-12-20T09:09:48;5.93;;;1.90;;
70946;SDS011;58605;48.700;8.760;2023-12-20T09:12:17;2.13;;;1.63;;
70946;SDS011;58605;48.700;8.760;2023-12-20T09:14:44;4.80;;;2.17;;
70946;SDS011;58605;48.700;8.760;2023-12-20T09:17:10;5.20;;;2.03;;
70946;SDS011;58605;48.700;8.760;2023-12-20T09:19:44;4.80;;;1.70;;
70946;SDS011;58605;48.700;8.760;2023-12-20T09:22:10;2.90;;;1.80;;
70946;SDS011;58605;48.700;8.760;2023-12-20T09:24:37;3.77;;;1.67;;
70946;SDS011;58605;48.700;8.760;2023-12-20T09:27:04;4.87;;;1.70;;
70946;SDS011;58605;48.700;8.760;2023-12-20T09:29:32;7.90;;;1.70;;
70946;SDS011;58605;48.700;8.760;2023-12-20T09:31:58;4.93;;;2.27;;
70946;SDS011;58605;48.700;8.760;2023-12-20T09:34:24;2.63;;;1.77;;
70946;SDS011;58605;48.700;8.760;2023-12-20T09:36:52;2.57;;;1.70;;
70946;SDS011;58605;48.700;8.760;2023-12-20T09:39:18;3.37;;;1.60;;
70946;SDS011;58605;48.700;8.760;2023-12-20T09:41:59;3.70;;;1.80;;
70946;SDS011;58605;48.700;8.760;2023-12-20T09:44:27;1.80;;;1.63;;
70946;SDS011;58605;48.700;8.760;2023-12-20T09:46:55;5.13;;;1.80;;
70946;SDS011;58605;48.700;8.760;2023-12-20T09:49:22;6.17;;;1.50;;
70946;SDS011;58605;48.700;8.760;2023-12-20T09:51:50;3.00;;;1.77;;
70946;SDS011;58605;48.700;8.760;2023-12-20T09:54:17;2.23;;;1.70;;
70946;SDS011;58605;48.700;8.760;2023-12-20T09:56:44;4.73;;;1.80;;
70946;SDS011;58605;48.700;8.760;2023-12-20T09:59:10;2.73;;;1.70;;
70946;SDS011;58605;48.700;8.760;2023-12-20T10:01:36;2.63;;;1.40;;
70946;SDS011;58605;48.700;8.760;2023-12-20T10:04:08;4.13;;;2.03;;
70946;SDS011;58605;48.700;8.760;2023-12-20T10:06:37;3.53;;;2.33;;
70946;SDS011;58605;48.700;8.760;2023-12-20T10:09:03;4.23;;;1.40;;
70946;SDS011;58605;48.700;8.760;2023-12-20T10:11:29;3.20;;;1.60;;
70946;SDS011;58605;48.700;8.760;2023-12-20T10:13:58;3.37;;;1.70;;
70946;SDS011;58605;48.700;8.760;2023-12-20T10:16:26;5.43;;;1.70;;
70946;SDS011;58605;48.700;8.760;2023-12-20T10:18:52;4.20;;;1.70;;
70946;SDS011;58605;48.700;8.760;2023-12-20T10:21:20;3.80;;;1.60;;
70946;SDS011;58605;48.700;8.760;2023-12-20T10:23:47;3.80;;;1.80;;
70946;SDS011;58605;48.700;8.760;2023-12-20T10:26:18;2.67;;;1.60;;
70946;SDS011;58605;48.700;8.760;2023-12-20T10:28:46;3.47;;;1.90;;
70946;SDS011;58605;48.700;8.760;2023-12-20T10:31:25;3.43;;;1.77;;
70946;SDS011;58605;48.700;8.760;2023-12-20T10:33:52;2.63;;;1.90;;
70946;SDS011;58605;48.700;8.760;2023-12-20T10:36:20;5.20;;;2.07;;
70946;SDS011;58605;48.700;8.760;2023-12-20T10:38:48;4.03;;;1.83;;
70946;SDS011;58605;48.700;8.760;2023-12-20T10:41:17;2.23;;;1.60;;
70946;SDS011;58605;48.700;8.760;2023-12-20T10:43:49;6.87;;;2.00;;
70946;SDS011;58605;48.700;8.760;2023-12-20T10:46:17;3.23;;;1.90;;
70946;SDS011;58605;48.700;8.760;2023-12-20T10:48:45;4.10;;;1.70;;
70946;SDS011;58605;48.700;8.760;2023-12-20T10:51:12;3.20;;;1.57;;
70946;SDS011;58605;48.700;8.760;2023-12-20T10:53:44;3.00;;;1.53;;
70946;SDS011;58605;48.700;8.760;2023-12-20T10:56:15;4.33;;;1.70;;
70946;SDS011;58605;48.700;8.760;2023-12-20T10:58:43;3.07;;;1.90;;
70946;SDS011;58605;48.700;8.760;2023-12-20T11:01:10;9.23;;;1.80;;
70946;SDS011;58605;48.700;8.760;2023-12-20T11:03:39;4.20;;;1.60;;
70946;SDS011;58605;48.700;8.760;2023-12-20T11:06:10;6.77;;;1.93;;
70946;SDS011;58605;48.700;8.760;2023-12-20T11:08:49;1.77;;;1.47;;
70946;SDS011;58605;48.700;8.760;2023-12-20T11:11:20;4.67;;;2.33;;
70946;SDS011;58605;48.700;8.760;2023-12-20T11:13:55;2.73;;;1.50;;
70946;SDS011;58605;48.700;8.760;2023-12-20T11:16:24;3.43;;;1.47;;
70946;SDS011;58605;48.700;8.760;2023-12-20T11:18:50;4.50;;;1.80;;
70946;SDS011;58605;48.700;8.760;2023-12-20T11:21:17;7.50;;;1.70;;
70946;SDS011;58605;48.700;8.760;2023-12-20T11:23:44;5.83;;;2.30;;
70946;SDS011;58605;48.700;8.760;2023-12-20T11:26:12;7.07;;;1.97;;
70946;SDS011;58605;48.700;8.760;2023-12-20T11:28:41;3.83;;;1.70;;
70946;SDS011;58605;48.700;8.760;2023-12-20T11:31:08;5.43;;;2.33;;
70946;SDS011;58605;48.700;8.760;2023-12-20T11:33:39;4.77;;;1.73;;
70946;SDS011;58605;48.700;8.760;2023-12-20T11:36:12;6.03;;;2.00;;
70946;SDS011;58605;48.700;8.760;2023-12-20T11:38:39;4.67;;;1.90;;
70946;SDS011;58605;48.700;8.760;2023-12-20T11:41:21;5.43;;;1.90;;
70946;SDS011;58605;48.700;8.760;2023-12-20T11:43:48;6.20;;;1.70;;
70946;SDS011;58605;48.700;8.760;2023-12-20T11:46:18;7.17;;;2.33;;
70946;SDS011;58605;48.700;8.760;2023-12-20T11:48:44;10.87;;;2.10;;
70946;SDS011;58605;48.700;8.760;2023-12-20T11:51:11;3.17;;;2.37;;
70946;SDS011;58605;48.700;8.760;2023-12-20T11:53:37;1.70;;;1.60;;
70946;SDS011;58605;48.700;8.760;2023-12-20T11:56:04;6.20;;;1.73;;
70946;SDS011;58605;48.700;8.760;2023-12-20T11:58:33;4.90;;;2.07;;
70946;SDS011;58605;48.700;8.760;2023-12-20T12:00:59;4.60;;;1.90;;
70946;SDS011;58605;48.700;8.760;2023-12-20T12:03:27;4.27;;;2.13;;
70946;SDS011;58605;48.700;8.760;2023-12-20T12:05:53;3.03;;;1.80;;
70946;SDS011;58605;48.700;8.760;2023-12-20T12:08:48;3.30;;;1.77;;
70946;SDS011;58605;48.700;8.760;2023-12-20T12:11:21;5.33;;;1.90;;
70946;SDS011;58605;48.700;8.760;2023-12-20T12:13:47;5.60;;;1.87;;
70946;SDS011;58605;48.700;8.760;2023-12-20T12:16:16;2.97;;;1.40;;
70946;SDS011;58605;48.700;8.760;2023-12-20T12:18:44;4.17;;;2.07;;
70946;SDS011;58605;48.700;8.760;2023-12-20T12:21:10;5.67;;;1.93;;
70946;SDS011;58605;48.700;8.760;2023-12-20T12:23:43;5.80;;;2.30;;
70946;SDS011;58605;48.700;8.760;2023-12-20T12:26:11;4.83;;;2.30;;
70946;SDS011;58605;48.700;8.760;2023-12-20T12:28:39;4.90;;;2.33;;
70946;SDS011;58605;48.700;8.760;2023-12-20T12:31:06;9.23;;;2.20;;
70946;SDS011;58605;48.700;8.760;2023-12-20T12:33:33;5.20;;;1.67;;
70946;SDS011;58605;48.700;8.760;2023-12-20T12:36:00;2.23;;;1.70;;
70946;SDS011;58605;48.700;8.760;2023-12-20T12:38:26;5.80;;;1.70;;
70946;SDS011;58605;48.700;8.760;2023-12-20T12:40:52;7.87;;;1.83;;
70946;SDS011;58605;48.700;8.760;2023-12-20T12:43:21;3.60;;;1.70;;
70946;SDS011;58605;48.700;8.760;2023-12-20T12:45:48;4.53;;;1.90;;
70946;SDS011;58605;48.700;8.760;2023-12-20T12:48:14;5.20;;;1.90;;
70946;SDS011;58605;48.700;8.760;2023-12-20T12:50:40;6.20;;;1.50;;
70946;SDS011;58605;48.700;8.760;2023-12-20T12:53:06;1.73;;;1.23;;
70946;SDS011;58605;48.700;8.760;2023-12-20T12:55:33;2.97;;;1.50;;
70946;SDS011;58605;48.700;8.760;2023-12-20T12:58:00;4.30;;;2.10;;
70946;SDS011;58605;48.700;8.760;2023-12-20T13:00:28;5.00;;;2.13;;
70946;SDS011;58605;48.700;8.760;2023-12-20T13:02:54;5.30;;;2.30;;
70946;SDS011;58605;48.700;8.760;2023-12-20T13:05:20;3.23;;;1.70;;
70946;SDS011;58605;48.700;8.760;2023-12-20T13:07:46;3.73;;;1.30;;
70946;SDS011;58605;48.700;8.760;2023-12-20T13:10:13;4.87;;;1.63;;
70946;SDS011;58605;48.700;8.760;2023-12-20T13:12:41;5.30;;;1.50;;
70946;SDS011;58605;48.700;8.760;2023-12-20T13:15:08;5.47;;;1.63;;
70946;SDS011;58605;48.700;8.760;2023-12-20T13:17:36;2.37;;;1.33;;
70946;SDS011;58605;48.700;8.760;2023-12-20T13:20:02;4.70;;;1.73;;
70946;SDS011;58605;48.700;8.760;2023-12-20T13:22:29;2.63;;;2.03;;
70946;SDS011;58605;48.700;8.760;2023-12-20T13:24:55;3.93;;;2.00;;
70946;SDS011;58605;48.700;8.760;2023-12-20T13:27:21;6.13;;;1.60;;
70946;SDS011;58605;48.700;8.760;2023-12-20T13:29:47;7.67;;;1.90;;
70946;SDS011;58605;48.700;8.760;2023-12-20T13:32:14;3.50;;;1.50;;
70946;SDS011;58605;48.700;8.760;2023-12-20T13:34:41;5.07;;;1.43;;
70946;SDS011;58605;48.700;8.760;2023-12-20T13:37:07;2.00;;;1.40;;
70946;SDS011;58605;48.700;8.760;2023-12-20T13:39:34;2.97;;;1.30;;
70946;SDS011;58605;48.700;8.760;2023-12-20T13:42:00;4.33;;;1.53;;
70946;SDS011;58605;48.700;8.760;2023-12-20T13:44:26;6.93;;;1.63;;
70946;SDS011;58605;48.700;8.760;2023-12-20T13:46:52;8.57;;;1.53;;
70946;SDS011;58605;48.700;8.760;2023-12-20T13:49:18;5.77;;;1.60;;
70946;SDS011;58605;48.700;8.760;2023-12-20T13:51:46;3.60;;;1.80;;
70946;SDS011;58605;48.700;8.760;2023-12-20T13:54:12;1.40;;;1.30;;
70946;SDS011;58605;48.700;8.760;2023-12-20T13:56:39;3.63;;;1.80;;
70946;SDS011;58605;48.700;8.760;2023-12-20T13:59:05;3.43;;;1.27;;
70946;SDS011;58605;48.700;8.760;2023-12-20T14:01:31;4.40;;;1.57;;
70946;SDS011;58605;48.700;8.760;2023-12-20T14:03:57;4.00;;;1.60;;
70946;SDS011;58605;48.700;8.760;2023-12-20T14:06:24;3.47;;;1.57;;
70946;SDS011;58605;48.700;8.760;2023-12-20T14:08:52;8.90;;;1.97;;
70946;SDS011;58605;48.700;8.760;2023-12-20T14:11:18;3.53;;;1.60;;
70946;SDS011;58605;48.700;8.760;2023-12-20T14:13:44;2.43;;;1.60;;
70946;SDS011;58605;48.700;8.760;2023-12-20T14:16:10;5.23;;;1.60;;
70946;SDS011;58605;48.700;8.760;2023-12-20T14:18:37;4.60;;;1.83;;
70946;SDS011;58605;48.700;8.760;2023-12-20T14:21:05;2.97;;;1.40;;
70946;SDS011;58605;48.700;8.760;2023-12-20T14:23:32;4.13;;;1.60;;
70946;SDS011;58605;48.700;8.760;2023-12-20T14:26:00;2.47;;;1.50;;
70946;SDS011;58605;48.700;8.760;2023-12-20T14:28:27;2.27;;;1.50;;
70946;SDS011;58605;48.700;8.760;2023-12-20T14:30:53;3.90;;;1.40;;
70946;SDS011;58605;48.700;8.760;2023-12-20T14:33:20;3.03;;;1.47;;
70946;SDS011;58605;48.700;8.760;2023-12-20T14:35:46;3.30;;;1.50;;
70946;SDS011;58605;48.700;8.760;2023-12-20T14:38:13;4.10;;;1.40;;
70946;SDS011;58605;48.700;8.760;2023-12-20T14:40:40;4.50;;;1.63;;
70946;SDS011;58605;48.700;8.760;2023-12-20T14:43:08;2.37;;;1.43;;
70946;SDS011;58605;48.700;8.760;2023-12-20T14:45:34;2.93;;;1.60;;
70946;SDS011;58605;48.700;8.760;2023-12-20T14:48:00;3.23;;;1.60;;
70946;SDS011;58605;48.700;8.760;2023-12-20T14:50:27;3.20;;;1.70;;